createdAt,value
2019-02-17T00:03:11.392Z,7.47
2019-02-17T00:08:15.502Z,4.90
2019-02-17T00:13:19.430Z,7.50
2019-02-17T00:18:23.341Z,7.00
2019-02-17T00:23:27.290Z,5.83
2019-02-17T00:28:31.215Z,5.30
2019-02-17T00:33:35.226Z,6.97
2019-02-17T00:38:38.806Z,6.47
2019-02-17T00:43:42.388Z,6.10
2019-02-17T00:48:46.337Z,6.93
2019-02-17T00:53:49.930Z,7.27
2019-02-17T00:58:53.513Z,5.83
2019-02-17T01:03:57.105Z,5.77
2019-02-17T01:09:01.029Z,5.63
2019-02-17T01:14:04.791Z,5.63
2019-02-17T01:19:08.379Z,5.77
2019-02-17T01:24:11.965Z,5.60
2019-02-17T01:29:20.420Z,5.53
2019-02-17T01:34:21.177Z,5.83
2019-02-17T01:39:24.767Z,5.93
2019-02-17T01:44:28.370Z,5.70
2019-02-17T01:49:31.952Z,5.90
2019-02-17T01:54:35.537Z,5.57
2019-02-17T01:59:39.126Z,5.70
2019-02-17T02:04:42.754Z,5.63
2019-02-17T02:09:46.338Z,5.67
2019-02-17T02:14:50.186Z,5.43
2019-02-17T02:19:54.158Z,5.83
2019-02-17T02:24:58.202Z,7.07
2019-02-17T02:30:02.247Z,7.07
2019-02-17T02:35:06.981Z,7.50
2019-02-17T02:40:10.702Z,5.67
2019-02-17T02:45:14.362Z,5.07
2019-02-17T02:50:17.954Z,4.00
2019-02-17T02:55:21.530Z,3.00
2019-02-17T03:00:25.186Z,3.30
2019-02-17T03:05:28.833Z,3.03
2019-02-17T03:10:32.430Z,2.70
2019-02-17T03:15:36.005Z,3.50
2019-02-17T03:20:39.873Z,3.47
2019-02-17T03:25:45.372Z,3.30
2019-02-17T03:30:49.518Z,3.67
2019-02-17T03:36:12.427Z,2.50
2019-02-17T03:41:16.005Z,2.63
2019-02-17T03:46:19.599Z,3.10
2019-02-17T03:51:23.164Z,2.83
2019-02-17T03:56:26.753Z,2.20
2019-02-17T04:01:30.361Z,2.50
2019-02-17T04:06:34.009Z,2.83
2019-02-17T04:11:37.585Z,2.83
2019-02-17T04:16:41.178Z,2.50
2019-02-17T04:21:44.753Z,2.70
2019-02-17T04:26:48.344Z,2.20
2019-02-17T04:31:51.913Z,2.40
2019-02-17T04:36:55.509Z,2.40
2019-02-17T04:41:59.082Z,2.98
2019-02-17T04:47:02.742Z,2.60
2019-02-17T04:52:06.699Z,2.50
2019-02-17T04:57:10.277Z,2.47
2019-02-17T05:02:13.869Z,2.60
2019-02-17T05:07:17.446Z,2.10
2019-02-17T05:12:21.125Z,2.07
2019-02-17T05:17:24.741Z,2.33
2019-02-17T05:22:28.321Z,2.30
2019-02-17T05:27:32.257Z,2.47
2019-02-17T05:32:35.839Z,2.07
2019-02-17T05:37:39.410Z,2.40
2019-02-17T05:42:43.018Z,2.80
2019-02-17T05:47:46.604Z,2.27
2019-02-17T05:52:50.254Z,2.40
2019-02-17T05:57:53.839Z,2.33
2019-02-17T06:02:57.421Z,1.97
2019-02-17T06:08:01.321Z,1.90
2019-02-17T06:13:04.893Z,2.00
2019-02-17T06:18:09.003Z,2.30
2019-02-17T06:23:12.584Z,2.63
2019-02-17T06:28:16.228Z,2.37
2019-02-17T06:33:20.157Z,2.53
2019-02-17T06:38:23.812Z,2.83
2019-02-17T06:43:27.382Z,2.97
2019-02-17T06:48:30.967Z,4.30
2019-02-17T06:53:34.549Z,2.57
2019-02-17T06:58:38.147Z,2.20
2019-02-17T07:03:42.081Z,2.27
2019-02-17T07:08:45.887Z,2.30
2019-02-17T07:13:49.468Z,4.20
2019-02-17T07:18:53.128Z,3.40
2019-02-17T07:23:56.773Z,4.87
2019-02-17T07:29:00.350Z,3.80
2019-02-17T07:34:03.938Z,3.17
2019-02-17T07:39:07.588Z,2.73
2019-02-17T07:44:11.165Z,2.30
2019-02-17T07:49:14.820Z,3.60
2019-02-17T07:54:18.406Z,2.90
2019-02-17T07:59:21.988Z,4.00
2019-02-17T08:04:25.989Z,6.10
2019-02-17T08:09:29.573Z,11.63
2019-02-17T08:14:33.532Z,8.13
2019-02-17T08:19:37.113Z,9.27
2019-02-17T08:24:40.688Z,8.60
2019-02-17T08:29:44.367Z,8.00
2019-02-17T08:34:48.305Z,6.67
2019-02-17T08:39:51.887Z,6.60
2019-02-17T08:44:55.467Z,9.50
2019-02-17T08:49:59.069Z,10.17
2019-02-17T08:55:02.798Z,10.53
2019-02-17T09:00:13.922Z,10.40
2019-02-17T09:05:17.515Z,11.80
2019-02-17T09:10:21.536Z,11.97
2019-02-17T09:15:25.137Z,10.80
2019-02-17T09:20:29.084Z,9.97
2019-02-17T09:25:32.688Z,8.37
2019-02-17T09:30:36.637Z,7.97
2019-02-17T09:35:40.221Z,9.37
2019-02-17T09:40:43.814Z,8.40
2019-02-17T09:45:47.398Z,7.53
2019-02-17T09:50:51.056Z,8.17
2019-02-17T09:55:55.205Z,10.73
2019-02-17T10:00:58.816Z,11.50
2019-02-17T10:06:02.483Z,12.17
2019-02-17T10:11:06.172Z,13.13
2019-02-17T10:16:09.757Z,12.50
2019-02-17T10:21:13.344Z,12.30
2019-02-17T10:26:16.936Z,12.00
2019-02-17T10:31:20.596Z,11.67
2019-02-17T10:36:24.188Z,10.93
2019-02-17T10:41:27.904Z,10.53
2019-02-17T10:46:31.698Z,10.30
2019-02-17T10:51:35.588Z,8.70
2019-02-17T10:56:39.169Z,9.93
2019-02-17T11:01:42.867Z,9.00
2019-02-17T11:06:46.797Z,7.92
2019-02-17T11:11:50.354Z,9.75
2019-02-17T11:16:53.938Z,9.30
2019-02-17T11:21:58.068Z,9.27
2019-02-17T11:27:02.092Z,9.23
2019-02-17T11:32:06.040Z,8.87
2019-02-17T11:37:09.876Z,8.60
2019-02-17T11:42:13.750Z,8.60
2019-02-17T11:47:17.448Z,7.87
2019-02-17T11:52:21.413Z,8.27
2019-02-17T11:57:25.178Z,8.20
2019-02-17T12:02:28.845Z,8.90
2019-02-17T12:07:32.449Z,9.17
2019-02-17T12:12:36.433Z,7.97
2019-02-17T12:17:40.012Z,7.03
2019-02-17T12:22:43.876Z,5.83
2019-02-17T12:27:49.451Z,6.90
2019-02-17T12:32:53.175Z,5.60
2019-02-17T12:37:56.764Z,6.53
2019-02-17T12:43:00.698Z,5.80
2019-02-17T12:48:04.429Z,5.90
2019-02-17T12:53:08.019Z,5.60
2019-02-17T12:58:11.610Z,4.83
2019-02-17T13:03:15.568Z,3.92
2019-02-17T13:08:19.157Z,4.00
2019-02-17T13:13:22.736Z,3.90
2019-02-17T13:18:26.673Z,4.42
2019-02-17T13:23:30.273Z,5.12
2019-02-17T13:28:33.887Z,4.37
2019-02-17T13:33:39.381Z,3.47
2019-02-17T13:38:43.130Z,4.47
2019-02-17T13:43:46.997Z,3.37
2019-02-17T13:48:50.583Z,4.15
2019-02-17T13:53:54.176Z,4.12
2019-02-17T13:58:57.856Z,2.10
2019-02-17T14:04:01.833Z,2.55
2019-02-17T14:09:06.168Z,2.20
2019-02-17T14:14:09.756Z,2.27
2019-02-17T14:19:13.357Z,2.13
2019-02-17T14:24:16.998Z,1.70
2019-02-17T14:29:20.594Z,1.80
2019-02-17T14:34:24.163Z,1.63
2019-02-17T14:39:28.138Z,2.30
2019-02-17T14:44:31.788Z,2.57
2019-02-17T14:49:35.372Z,2.80
2019-02-17T14:54:38.957Z,2.83
2019-02-17T14:59:42.534Z,2.43
2019-02-17T15:04:46.537Z,2.30
2019-02-17T15:09:50.116Z,2.00
2019-02-17T15:14:54.103Z,2.00
2019-02-17T15:19:57.700Z,2.20
2019-02-17T15:25:01.320Z,2.97
2019-02-17T15:30:13.355Z,2.20
2019-02-17T15:35:16.936Z,2.17
2019-02-17T15:40:20.588Z,2.47
2019-02-17T15:45:24.641Z,3.97
2019-02-17T15:50:28.224Z,2.40
2019-02-17T15:55:31.951Z,2.97
2019-02-17T16:00:35.524Z,6.50
2019-02-17T16:05:39.122Z,8.80
2019-02-17T16:10:42.707Z,11.63
2019-02-17T16:15:46.297Z,16.23
2019-02-17T16:20:50.305Z,10.63
2019-02-17T16:25:53.900Z,16.33
2019-02-17T16:30:57.496Z,13.33
2019-02-17T16:36:01.073Z,7.40
2019-02-17T16:41:05.200Z,7.60
2019-02-17T16:46:08.779Z,6.97
2019-02-17T16:51:12.352Z,4.60
2019-02-17T16:56:15.942Z,4.80
2019-02-17T17:01:19.970Z,4.17
2019-02-17T17:06:23.670Z,6.70
2019-02-17T17:11:27.258Z,5.57
2019-02-17T17:16:30.847Z,5.53
2019-02-17T17:21:34.770Z,4.60
2019-02-17T17:26:38.414Z,7.67
2019-02-17T17:31:42.077Z,7.27
2019-02-17T17:36:46.039Z,4.17
2019-02-17T17:41:49.619Z,6.67
2019-02-17T17:46:53.211Z,3.53
2019-02-17T17:51:57.144Z,4.23
2019-02-17T17:57:01.021Z,4.13
2019-02-17T18:02:04.681Z,10.90
2019-02-17T18:07:08.266Z,5.70
2019-02-17T18:12:11.862Z,5.23
2019-02-17T18:17:15.449Z,2.70
2019-02-17T18:22:19.168Z,3.60
2019-02-17T18:27:22.781Z,6.67
2019-02-17T18:32:26.728Z,2.67
2019-02-17T18:37:30.393Z,7.23
2019-02-17T18:42:33.978Z,8.80
2019-02-17T18:47:37.562Z,4.57
2019-02-17T18:52:41.210Z,4.50
2019-02-17T18:57:50.332Z,3.17
2019-02-17T19:02:50.053Z,3.20
2019-02-17T19:07:53.632Z,6.90
2019-02-17T19:12:57.223Z,5.63
2019-02-17T19:18:00.813Z,3.03
2019-02-17T19:23:04.793Z,3.60
2019-02-17T19:28:08.377Z,2.93
2019-02-17T19:33:12.352Z,3.00
2019-02-17T19:38:15.919Z,3.40
2019-02-17T19:43:19.505Z,2.93
2019-02-17T19:48:23.393Z,2.83
2019-02-17T19:53:27.053Z,3.47
2019-02-17T19:58:30.712Z,8.67
2019-02-17T20:03:36.318Z,5.97
2019-02-17T20:08:39.897Z,7.57
2019-02-17T20:13:45.937Z,13.17
2019-02-17T20:18:49.606Z,27.33
2019-02-17T20:23:53.221Z,11.90
2019-02-17T20:28:57.391Z,6.83
2019-02-17T20:34:01.347Z,43.43
2019-02-17T20:39:06.132Z,33.83
2019-02-17T20:44:10.035Z,13.13
2019-02-17T20:49:13.648Z,13.63
2019-02-17T20:54:17.236Z,11.27
2019-02-17T20:59:20.813Z,9.43
2019-02-17T21:04:24.455Z,7.63
2019-02-17T21:09:28.305Z,7.57
2019-02-17T21:14:31.879Z,7.60
2019-02-17T21:19:35.808Z,7.17
2019-02-17T21:24:39.549Z,6.57
2019-02-17T21:29:43.129Z,5.87
2019-02-17T21:34:47.072Z,2.90
2019-02-17T21:39:50.665Z,3.47
2019-02-17T21:44:54.244Z,3.33
2019-02-17T21:49:57.816Z,5.10
2019-02-17T21:55:01.792Z,5.43
2019-02-17T22:00:09.434Z,5.30
2019-02-17T22:05:13.156Z,3.40
2019-02-17T22:10:20.358Z,6.67
2019-02-17T22:15:24.770Z,10.90
2019-02-17T22:20:28.344Z,24.40
2019-02-17T22:25:31.924Z,5.70
2019-02-17T22:30:35.821Z,5.20
2019-02-17T22:35:39.474Z,6.03
2019-02-17T22:40:43.412Z,3.00
2019-02-17T22:45:47.072Z,3.87
2019-02-17T22:50:50.645Z,2.70
2019-02-17T22:55:54.493Z,4.00
2019-02-17T23:01:00.661Z,3.80
2019-02-17T23:06:04.578Z,2.80
2019-02-17T23:11:08.585Z,2.80
2019-02-17T23:16:12.162Z,3.20
2019-02-17T23:21:15.796Z,3.33
2019-02-17T23:26:19.387Z,2.80
2019-02-17T23:31:23.042Z,4.20
2019-02-17T23:36:26.634Z,4.23
2019-02-17T23:41:30.220Z,5.17
2019-02-17T23:46:33.823Z,3.30
2019-02-17T23:51:37.481Z,2.67
2019-02-17T23:56:41.117Z,2.93
